sensor_id;sensor_type;location;lat;lon;timestamp;P1;durP1;ratioP1;P2;durP2;ratioP2
19149;SDS011;9707;49.158;8.632;2023-01-26T00:01:24;19.05;;;10.77;;
19149;SDS011;9707;49.158;8.632;2023-01-26T00:03:53;19.20;;;11.73;;
19149;SDS011;9707;49.158;8.632;2023-01-26T00:06:20;17.40;;;11.30;;
19149;SDS011;9707;49.158;8.632;2023-01-26T00:08:50;17.70;;;11.40;;
19149;SDS011;9707;49.158;8.632;2023-01-26T00:11:22;18.55;;;11.45;;
19149;SDS011;9707;49.158;8.632;2023-01-26T00:13:56;18.25;;;11.68;;
19149;SDS011;9707;49.158;8.632;2023-01-26T00:16:24;17.60;;;11.48;;
19149;SDS011;9707;49.158;8.632;2023-01-26T00:18:50;18.38;;;11.20;;
19149;SDS011;9707;49.158;8.632;2023-01-26T00:21:16;19.90;;;11.63;;
19149;SDS011;9707;49.158;8.632;2023-01-26T00:23:44;18.05;;;11.35;;
19149;SDS011;9707;49.158;8.632;2023-01-26T00:26:12;17.90;;;10.60;;
19149;SDS011;9707;49.158;8.632;2023-01-26T00:28:39;19.80;;;12.15;;
19149;SDS011;9707;49.158;8.632;2023-01-26T00:31:06;17.30;;;11.63;;
19149;SDS011;9707;49.158;8.632;2023-01-26T00:33:34;17.27;;;10.07;;
19149;SDS011;9707;49.158;8.632;2023-01-26T00:35:59;19.60;;;11.50;;
19149;SDS011;9707;49.158;8.632;2023-01-26T00:38:25;19.90;;;11.52;;
19149;SDS011;9707;49.158;8.632;2023-01-26T00:40:51;14.65;;;9.27;;
19149;SDS011;9707;49.158;8.632;2023-01-26T00:43:16;16.35;;;9.15;;
19149;SDS011;9707;49.158;8.632;2023-01-26T00:45:42;13.50;;;9.63;;
19149;SDS011;9707;49.158;8.632;2023-01-26T00:48:08;17.48;;;10.30;;
19149;SDS011;9707;49.158;8.632;2023-01-26T00:50:33;17.45;;;10.68;;
19149;SDS011;9707;49.158;8.632;2023-01-26T00:52:58;18.85;;;10.40;;
19149;SDS011;9707;49.158;8.632;2023-01-26T00:55:24;17.45;;;10.55;;
19149;SDS011;9707;49.158;8.632;2023-01-26T00:57:56;16.63;;;10.95;;
19149;SDS011;9707;49.158;8.632;2023-01-26T01:00:22;14.45;;;9.52;;
19149;SDS011;9707;49.158;8.632;2023-01-26T01:02:47;17.40;;;10.10;;
19149;SDS011;9707;49.158;8.632;2023-01-26T01:05:12;16.70;;;9.17;;
19149;SDS011;9707;49.158;8.632;2023-01-26T01:07:37;17.63;;;10.50;;
19149;SDS011;9707;49.158;8.632;2023-01-26T01:10:03;17.13;;;10.73;;
19149;SDS011;9707;49.158;8.632;2023-01-26T01:12:28;15.25;;;9.80;;
19149;SDS011;9707;49.158;8.632;2023-01-26T01:14:54;19.50;;;11.02;;
19149;SDS011;9707;49.158;8.632;2023-01-26T01:17:19;17.60;;;11.13;;
19149;SDS011;9707;49.158;8.632;2023-01-26T01:19:44;17.67;;;10.95;;
19149;SDS011;9707;49.158;8.632;2023-01-26T01:22:09;16.85;;;10.43;;
19149;SDS011;9707;49.158;8.632;2023-01-26T01:24:35;15.90;;;9.85;;
19149;SDS011;9707;49.158;8.632;2023-01-26T01:27:00;15.63;;;10.68;;
19149;SDS011;9707;49.158;8.632;2023-01-26T01:29:26;16.70;;;10.15;;
19149;SDS011;9707;49.158;8.632;2023-01-26T01:31:51;17.27;;;10.60;;
19149;SDS011;9707;49.158;8.632;2023-01-26T01:34:16;17.27;;;10.52;;
19149;SDS011;9707;49.158;8.632;2023-01-26T01:36:42;18.38;;;10.98;;
19149;SDS011;9707;49.158;8.632;2023-01-26T01:39:07;18.42;;;10.65;;
19149;SDS011;9707;49.158;8.632;2023-01-26T01:41:32;19.10;;;11.05;;
19149;SDS011;9707;49.158;8.632;2023-01-26T01:47:01;17.88;;;11.30;;
19149;SDS011;9707;49.158;8.632;2023-01-26T01:49:41;16.73;;;10.40;;
19149;SDS011;9707;49.158;8.632;2023-01-26T01:54:54;15.65;;;10.52;;
19149;SDS011;9707;49.158;8.632;2023-01-26T01:57:23;17.88;;;10.77;;
19149;SDS011;9707;49.158;8.632;2023-01-26T02:00:03;16.92;;;10.13;;
19149;SDS011;9707;49.158;8.632;2023-01-26T02:02:31;18.55;;;11.52;;
19149;SDS011;9707;49.158;8.632;2023-01-26T02:04:58;15.48;;;9.70;;
19149;SDS011;9707;49.158;8.632;2023-01-26T02:07:29;17.15;;;11.23;;
19149;SDS011;9707;49.158;8.632;2023-01-26T02:09:56;15.38;;;10.10;;
19149;SDS011;9707;49.158;8.632;2023-01-26T02:12:41;15.80;;;10.52;;
19149;SDS011;9707;49.158;8.632;2023-01-26T02:15:07;15.32;;;9.90;;
19149;SDS011;9707;49.158;8.632;2023-01-26T02:17:32;15.35;;;9.98;;
19149;SDS011;9707;49.158;8.632;2023-01-26T02:20:02;16.98;;;10.23;;
19149;SDS011;9707;49.158;8.632;2023-01-26T02:22:50;16.70;;;10.43;;
19149;SDS011;9707;49.158;8.632;2023-01-26T02:25:38;19.48;;;10.25;;
19149;SDS011;9707;49.158;8.632;2023-01-26T02:28:08;15.60;;;10.57;;
19149;SDS011;9707;49.158;8.632;2023-01-26T02:30:33;18.70;;;11.32;;
19149;SDS011;9707;49.158;8.632;2023-01-26T02:32:58;16.17;;;10.77;;
19149;SDS011;9707;49.158;8.632;2023-01-26T02:35:23;17.50;;;10.98;;
19149;SDS011;9707;49.158;8.632;2023-01-26T02:37:49;15.15;;;9.88;;
19149;SDS011;9707;49.158;8.632;2023-01-26T02:40:24;15.73;;;10.15;;
19149;SDS011;9707;49.158;8.632;2023-01-26T02:43:05;17.90;;;9.80;;
19149;SDS011;9707;49.158;8.632;2023-01-26T02:45:31;17.83;;;10.02;;
19149;SDS011;9707;49.158;8.632;2023-01-26T02:47:57;14.43;;;9.95;;
19149;SDS011;9707;49.158;8.632;2023-01-26T02:50:26;13.68;;;8.80;;
19149;SDS011;9707;49.158;8.632;2023-01-26T02:52:51;15.25;;;8.77;;
19149;SDS011;9707;49.158;8.632;2023-01-26T02:55:16;16.42;;;9.23;;
19149;SDS011;9707;49.158;8.632;2023-01-26T02:57:50;15.55;;;10.48;;
19149;SDS011;9707;49.158;8.632;2023-01-26T03:00:33;17.63;;;10.00;;
19149;SDS011;9707;49.158;8.632;2023-01-26T03:03:14;16.13;;;9.95;;
19149;SDS011;9707;49.158;8.632;2023-01-26T03:05:42;16.95;;;10.38;;
19149;SDS011;9707;49.158;8.632;2023-01-26T03:08:07;19.08;;;10.32;;
19149;SDS011;9707;49.158;8.632;2023-01-26T03:10:33;17.13;;;10.13;;
19149;SDS011;9707;49.158;8.632;2023-01-26T03:12:58;17.58;;;11.10;;
19149;SDS011;9707;49.158;8.632;2023-01-26T03:15:24;17.65;;;10.77;;
19149;SDS011;9707;49.158;8.632;2023-01-26T03:18:13;15.38;;;10.40;;
19149;SDS011;9707;49.158;8.632;2023-01-26T03:20:58;16.92;;;10.63;;
19149;SDS011;9707;49.158;8.632;2023-01-26T03:23:43;19.95;;;11.57;;
19149;SDS011;9707;49.158;8.632;2023-01-26T03:26:27;19.40;;;11.07;;
19149;SDS011;9707;49.158;8.632;2023-01-26T03:29:11;20.50;;;11.85;;
19149;SDS011;9707;49.158;8.632;2023-01-26T03:31:36;19.55;;;11.57;;
19149;SDS011;9707;49.158;8.632;2023-01-26T03:34:01;18.60;;;11.85;;
19149;SDS011;9707;49.158;8.632;2023-01-26T03:36:27;20.58;;;12.25;;
19149;SDS011;9707;49.158;8.632;2023-01-26T03:38:52;20.17;;;13.00;;
19149;SDS011;9707;49.158;8.632;2023-01-26T03:41:17;19.60;;;12.32;;
19149;SDS011;9707;49.158;8.632;2023-01-26T03:44:01;19.30;;;12.48;;
19149;SDS011;9707;49.158;8.632;2023-01-26T03:46:45;21.25;;;13.60;;
19149;SDS011;9707;49.158;8.632;2023-01-26T03:49:29;23.45;;;13.38;;
19149;SDS011;9707;49.158;8.632;2023-01-26T03:52:13;22.02;;;13.95;;
19149;SDS011;9707;49.158;8.632;2023-01-26T03:54:57;24.60;;;13.98;;
19149;SDS011;9707;49.158;8.632;2023-01-26T03:57:41;23.48;;;14.30;;
19149;SDS011;9707;49.158;8.632;2023-01-26T04:00:06;25.50;;;14.43;;
19149;SDS011;9707;49.158;8.632;2023-01-26T04:02:32;27.45;;;17.02;;
19149;SDS011;9707;49.158;8.632;2023-01-26T04:05:16;25.67;;;16.10;;
19149;SDS011;9707;49.158;8.632;2023-01-26T04:08:00;27.73;;;16.10;;
19149;SDS011;9707;49.158;8.632;2023-01-26T04:10:46;23.90;;;14.65;;
19149;SDS011;9707;49.158;8.632;2023-01-26T04:13:12;25.77;;;14.55;;
19149;SDS011;9707;49.158;8.632;2023-01-26T04:15:55;23.42;;;14.57;;
19149;SDS011;9707;49.158;8.632;2023-01-26T04:18:39;24.48;;;14.50;;
19149;SDS011;9707;49.158;8.632;2023-01-26T04:21:23;26.30;;;15.52;;
19149;SDS011;9707;49.158;8.632;2023-01-26T04:23:57;25.42;;;15.35;;
19149;SDS011;9707;49.158;8.632;2023-01-26T04:26:23;24.92;;;14.55;;
19149;SDS011;9707;49.158;8.632;2023-01-26T04:28:50;26.35;;;14.50;;
19149;SDS011;9707;49.158;8.632;2023-01-26T04:31:15;25.08;;;14.85;;
19149;SDS011;9707;49.158;8.632;2023-01-26T04:33:41;25.55;;;15.25;;
19149;SDS011;9707;49.158;8.632;2023-01-26T04:36:07;28.55;;;15.75;;
19149;SDS011;9707;49.158;8.632;2023-01-26T04:38:33;24.38;;;13.95;;
19149;SDS011;9707;49.158;8.632;2023-01-26T04:40:59;26.15;;;15.10;;
19149;SDS011;9707;49.158;8.632;2023-01-26T04:43:25;27.48;;;14.73;;
19149;SDS011;9707;49.158;8.632;2023-01-26T04:45:57;29.70;;;15.13;;
19149;SDS011;9707;49.158;8.632;2023-01-26T04:48:27;26.95;;;14.73;;
19149;SDS011;9707;49.158;8.632;2023-01-26T04:50:56;26.73;;;14.30;;
19149;SDS011;9707;49.158;8.632;2023-01-26T04:53:26;26.83;;;14.10;;
19149;SDS011;9707;49.158;8.632;2023-01-26T04:55:51;26.50;;;14.45;;
19149;SDS011;9707;49.158;8.632;2023-01-26T04:58:17;23.80;;;13.65;;
19149;SDS011;9707;49.158;8.632;2023-01-26T05:00:43;24.73;;;14.05;;
19149;SDS011;9707;49.158;8.632;2023-01-26T05:03:08;28.35;;;14.65;;
19149;SDS011;9707;49.158;8.632;2023-01-26T05:05:34;24.08;;;13.32;;
19149;SDS011;9707;49.158;8.632;2023-01-26T05:08:03;21.35;;;12.95;;
19149;SDS011;9707;49.158;8.632;2023-01-26T05:10:30;26.63;;;14.60;;
19149;SDS011;9707;49.158;8.632;2023-01-26T05:12:56;27.33;;;15.05;;
19149;SDS011;9707;49.158;8.632;2023-01-26T05:15:21;27.27;;;14.65;;
19149;SDS011;9707;49.158;8.632;2023-01-26T05:17:47;25.58;;;14.55;;
19149;SDS011;9707;49.158;8.632;2023-01-26T05:20:12;25.90;;;14.93;;
19149;SDS011;9707;49.158;8.632;2023-01-26T05:22:37;25.30;;;13.60;;
19149;SDS011;9707;49.158;8.632;2023-01-26T05:25:03;26.38;;;14.85;;
19149;SDS011;9707;49.158;8.632;2023-01-26T05:27:29;28.25;;;15.07;;
19149;SDS011;9707;49.158;8.632;2023-01-26T05:29:54;22.90;;;13.98;;
19149;SDS011;9707;49.158;8.632;2023-01-26T05:32:24;26.00;;;14.73;;
19149;SDS011;9707;49.158;8.632;2023-01-26T05:34:52;24.13;;;14.05;;
19149;SDS011;9707;49.158;8.632;2023-01-26T05:37:18;24.38;;;14.32;;
19149;SDS011;9707;49.158;8.632;2023-01-26T05:39:43;27.30;;;15.07;;
19149;SDS011;9707;49.158;8.632;2023-01-26T05:42:09;21.98;;;13.25;;
19149;SDS011;9707;49.158;8.632;2023-01-26T05:44:35;26.70;;;14.30;;
19149;SDS011;9707;49.158;8.632;2023-01-26T05:47:01;25.00;;;14.55;;
19149;SDS011;9707;49.158;8.632;2023-01-26T05:49:26;23.92;;;14.27;;
19149;SDS011;9707;49.158;8.632;2023-01-26T05:51:51;20.85;;;12.82;;
19149;SDS011;9707;49.158;8.632;2023-01-26T05:54:17;25.50;;;13.82;;
19149;SDS011;9707;49.158;8.632;2023-01-26T05:56:42;25.55;;;14.32;;
19149;SDS011;9707;49.158;8.632;2023-01-26T05:59:07;23.67;;;13.38;;
19149;SDS011;9707;49.158;8.632;2023-01-26T06:01:33;22.98;;;12.93;;
19149;SDS011;9707;49.158;8.632;2023-01-26T06:03:58;23.80;;;14.13;;
19149;SDS011;9707;49.158;8.632;2023-01-26T06:06:23;23.60;;;14.18;;
19149;SDS011;9707;49.158;8.632;2023-01-26T06:08:49;21.50;;;13.25;;
19149;SDS011;9707;49.158;8.632;2023-01-26T06:11:14;24.27;;;13.93;;
19149;SDS011;9707;49.158;8.632;2023-01-26T06:13:39;22.90;;;13.27;;
19149;SDS011;9707;49.158;8.632;2023-01-26T06:16:05;26.65;;;15.15;;
19149;SDS011;9707;49.158;8.632;2023-01-26T06:18:30;23.15;;;13.43;;
19149;SDS011;9707;49.158;8.632;2023-01-26T06:20:58;24.10;;;13.88;;
19149;SDS011;9707;49.158;8.632;2023-01-26T06:23:24;25.08;;;14.40;;
19149;SDS011;9707;49.158;8.632;2023-01-26T06:25:50;20.83;;;12.93;;
19149;SDS011;9707;49.158;8.632;2023-01-26T06:28:16;22.58;;;12.80;;
19149;SDS011;9707;49.158;8.632;2023-01-26T06:30:43;21.90;;;11.52;;
19149;SDS011;9707;49.158;8.632;2023-01-26T06:33:08;23.77;;;12.70;;
19149;SDS011;9707;49.158;8.632;2023-01-26T06:35:34;22.83;;;12.82;;
19149;SDS011;9707;49.158;8.632;2023-01-26T06:38:00;21.50;;;13.10;;
19149;SDS011;9707;49.158;8.632;2023-01-26T06:40:25;23.10;;;13.30;;
19149;SDS011;9707;49.158;8.632;2023-01-26T06:42:51;21.95;;;12.32;;
19149;SDS011;9707;49.158;8.632;2023-01-26T06:45:16;22.00;;;12.93;;
19149;SDS011;9707;49.158;8.632;2023-01-26T06:47:48;23.05;;;12.13;;
19149;SDS011;9707;49.158;8.632;2023-01-26T06:50:15;23.40;;;12.23;;
19149;SDS011;9707;49.158;8.632;2023-01-26T06:52:42;22.02;;;12.00;;
19149;SDS011;9707;49.158;8.632;2023-01-26T06:55:19;21.73;;;12.45;;
19149;SDS011;9707;49.158;8.632;2023-01-26T06:57:47;21.35;;;12.18;;
19149;SDS011;9707;49.158;8.632;2023-01-26T07:00:13;23.15;;;13.18;;
19149;SDS011;9707;49.158;8.632;2023-01-26T07:02:39;21.70;;;12.20;;
19149;SDS011;9707;49.158;8.632;2023-01-26T07:05:05;22.98;;;12.63;;
19149;SDS011;9707;49.158;8.632;2023-01-26T07:07:30;24.83;;;13.55;;
19149;SDS011;9707;49.158;8.632;2023-01-26T07:09:56;23.95;;;13.70;;
19149;SDS011;9707;49.158;8.632;2023-01-26T07:12:21;22.30;;;12.38;;
19149;SDS011;9707;49.158;8.632;2023-01-26T07:14:46;21.33;;;12.25;;
19149;SDS011;9707;49.158;8.632;2023-01-26T07:17:12;20.65;;;12.20;;
19149;SDS011;9707;49.158;8.632;2023-01-26T07:19:37;19.75;;;12.13;;
19149;SDS011;9707;49.158;8.632;2023-01-26T07:22:03;19.70;;;11.75;;
19149;SDS011;9707;49.158;8.632;2023-01-26T07:24:28;20.75;;;12.75;;
19149;SDS011;9707;49.158;8.632;2023-01-26T07:26:54;22.27;;;12.93;;
19149;SDS011;9707;49.158;8.632;2023-01-26T07:29:19;19.45;;;11.68;;
19149;SDS011;9707;49.158;8.632;2023-01-26T07:31:45;22.67;;;12.48;;
19149;SDS011;9707;49.158;8.632;2023-01-26T07:34:10;21.42;;;12.05;;
19149;SDS011;9707;49.158;8.632;2023-01-26T07:36:36;19.00;;;11.45;;
19149;SDS011;9707;49.158;8.632;2023-01-26T07:39:01;19.83;;;10.73;;
19149;SDS011;9707;49.158;8.632;2023-01-26T07:41:27;19.60;;;11.82;;
19149;SDS011;9707;49.158;8.632;2023-01-26T07:43:52;24.98;;;12.85;;
19149;SDS011;9707;49.158;8.632;2023-01-26T07:46:17;20.42;;;11.73;;
19149;SDS011;9707;49.158;8.632;2023-01-26T07:48:43;23.70;;;13.50;;
19149;SDS011;9707;49.158;8.632;2023-01-26T07:51:08;22.38;;;13.40;;
19149;SDS011;9707;49.158;8.632;2023-01-26T07:53:35;22.40;;;13.95;;
19149;SDS011;9707;49.158;8.632;2023-01-26T07:56:13;20.05;;;12.65;;
19149;SDS011;9707;49.158;8.632;2023-01-26T07:58:40;22.00;;;13.52;;
19149;SDS011;9707;49.158;8.632;2023-01-26T08:01:07;22.50;;;13.05;;
19149;SDS011;9707;49.158;8.632;2023-01-26T08:03:34;25.80;;;13.95;;
19149;SDS011;9707;49.158;8.632;2023-01-26T08:06:00;23.58;;;13.00;;
19149;SDS011;9707;49.158;8.632;2023-01-26T08:08:25;25.50;;;14.65;;
19149;SDS011;9707;49.158;8.632;2023-01-26T08:10:51;20.02;;;12.18;;
19149;SDS011;9707;49.158;8.632;2023-01-26T08:13:19;22.30;;;12.65;;
19149;SDS011;9707;49.158;8.632;2023-01-26T08:15:44;22.25;;;13.60;;
19149;SDS011;9707;49.158;8.632;2023-01-26T08:18:09;22.30;;;12.57;;
19149;SDS011;9707;49.158;8.632;2023-01-26T08:20:35;23.27;;;13.25;;
19149;SDS011;9707;49.158;8.632;2023-01-26T08:23:00;29.10;;;16.23;;
19149;SDS011;9707;49.158;8.632;2023-01-26T08:25:26;19.38;;;11.63;;
19149;SDS011;9707;49.158;8.632;2023-01-26T08:27:52;20.40;;;12.13;;
19149;SDS011;9707;49.158;8.632;2023-01-26T08:30:18;18.70;;;11.43;;
19149;SDS011;9707;49.158;8.632;2023-01-26T08:32:43;18.08;;;10.93;;
19149;SDS011;9707;49.158;8.632;2023-01-26T08:35:09;21.77;;;12.32;;
19149;SDS011;9707;49.158;8.632;2023-01-26T08:37:34;17.35;;;10.93;;
19149;SDS011;9707;49.158;8.632;2023-01-26T08:39:59;21.02;;;11.88;;
19149;SDS011;9707;49.158;8.632;2023-01-26T08:42:25;19.90;;;10.93;;
19149;SDS011;9707;49.158;8.632;2023-01-26T08:44:50;17.58;;;10.90;;
19149;SDS011;9707;49.158;8.632;2023-01-26T08:47:16;18.80;;;11.43;;
19149;SDS011;9707;49.158;8.632;2023-01-26T08:49:41;19.77;;;12.57;;
19149;SDS011;9707;49.158;8.632;2023-01-26T08:52:07;17.48;;;11.07;;
19149;SDS011;9707;49.158;8.632;2023-01-26T08:54:32;16.77;;;9.98;;
19149;SDS011;9707;49.158;8.632;2023-01-26T08:56:57;17.33;;;10.63;;
19149;SDS011;9707;49.158;8.632;2023-01-26T08:59:22;18.85;;;10.63;;
19149;SDS011;9707;49.158;8.632;2023-01-26T09:01:48;17.92;;;10.63;;
19149;SDS011;9707;49.158;8.632;2023-01-26T09:04:13;15.95;;;9.48;;
19149;SDS011;9707;49.158;8.632;2023-01-26T09:06:39;16.00;;;9.65;;
19149;SDS011;9707;49.158;8.632;2023-01-26T09:09:04;16.27;;;10.77;;
19149;SDS011;9707;49.158;8.632;2023-01-26T09:11:29;15.25;;;9.43;;
19149;SDS011;9707;49.158;8.632;2023-01-26T09:13:55;14.15;;;8.85;;
19149;SDS011;9707;49.158;8.632;2023-01-26T09:16:21;13.88;;;8.98;;
19149;SDS011;9707;49.158;8.632;2023-01-26T09:18:56;16.83;;;10.82;;
19149;SDS011;9707;49.158;8.632;2023-01-26T09:21:21;15.30;;;9.43;;
19149;SDS011;9707;49.158;8.632;2023-01-26T09:23:49;27.98;;;20.65;;
19149;SDS011;9707;49.158;8.632;2023-01-26T09:26:15;14.38;;;8.68;;
19149;SDS011;9707;49.158;8.632;2023-01-26T09:28:40;15.35;;;9.07;;
19149;SDS011;9707;49.158;8.632;2023-01-26T09:31:06;14.10;;;8.50;;
19149;SDS011;9707;49.158;8.632;2023-01-26T09:33:33;12.35;;;8.07;;
19149;SDS011;9707;49.158;8.632;2023-01-26T09:36:06;14.88;;;8.90;;
19149;SDS011;9707;49.158;8.632;2023-01-26T09:38:34;13.43;;;8.48;;
19149;SDS011;9707;49.158;8.632;2023-01-26T09:44:08;12.52;;;7.75;;
19149;SDS011;9707;49.158;8.632;2023-01-26T09:49:30;13.10;;;7.78;;
19149;SDS011;9707;49.158;8.632;2023-01-26T09:52:15;11.57;;;7.10;;
19149;SDS011;9707;49.158;8.632;2023-01-26T09:54:49;10.30;;;6.68;;
19149;SDS011;9707;49.158;8.632;2023-01-26T09:57:22;10.23;;;7.20;;
19149;SDS011;9707;49.158;8.632;2023-01-26T10:05:46;9.20;;;6.15;;
19149;SDS011;9707;49.158;8.632;2023-01-26T10:08:21;9.95;;;6.55;;
19149;SDS011;9707;49.158;8.632;2023-01-26T10:10:48;12.63;;;8.25;;
19149;SDS011;9707;49.158;8.632;2023-01-26T10:13:17;11.55;;;6.72;;
19149;SDS011;9707;49.158;8.632;2023-01-26T10:15:47;9.63;;;6.15;;
19149;SDS011;9707;49.158;8.632;2023-01-26T10:18:43;6.60;;;5.25;;
19149;SDS011;9707;49.158;8.632;2023-01-26T10:21:18;8.10;;;5.93;;
19149;SDS011;9707;49.158;8.632;2023-01-26T10:23:46;7.40;;;5.45;;
19149;SDS011;9707;49.158;8.632;2023-01-26T10:26:15;6.45;;;4.40;;
19149;SDS011;9707;49.158;8.632;2023-01-26T10:28:43;6.85;;;4.85;;
19149;SDS011;9707;49.158;8.632;2023-01-26T10:31:16;5.80;;;4.40;;
19149;SDS011;9707;49.158;8.632;2023-01-26T10:36:47;7.00;;;4.80;;
19149;SDS011;9707;49.158;8.632;2023-01-26T10:39:14;6.85;;;4.90;;
19149;SDS011;9707;49.158;8.632;2023-01-26T10:41:42;6.43;;;4.25;;
19149;SDS011;9707;49.158;8.632;2023-01-26T10:44:30;7.32;;;5.28;;
19149;SDS011;9707;49.158;8.632;2023-01-26T10:47:04;6.20;;;4.78;;
19149;SDS011;9707;49.158;8.632;2023-01-26T10:49:39;7.38;;;5.13;;
19149;SDS011;9707;49.158;8.632;2023-01-26T10:52:07;7.32;;;4.70;;
19149;SDS011;9707;49.158;8.632;2023-01-26T10:54:41;8.18;;;4.50;;
19149;SDS011;9707;49.158;8.632;2023-01-26T10:59:41;7.63;;;5.60;;
19149;SDS011;9707;49.158;8.632;2023-01-26T11:04:39;6.18;;;5.43;;
19149;SDS011;9707;49.158;8.632;2023-01-26T11:09:55;8.25;;;6.00;;
19149;SDS011;9707;49.158;8.632;2023-01-26T11:12:21;6.80;;;5.22;;
19149;SDS011;9707;49.158;8.632;2023-01-26T11:14:59;6.57;;;5.60;;
19149;SDS011;9707;49.158;8.632;2023-01-26T11:17:34;8.98;;;7.10;;
19149;SDS011;9707;49.158;8.632;2023-01-26T11:23:03;5.82;;;4.75;;
19149;SDS011;9707;49.158;8.632;2023-01-26T11:25:40;7.07;;;5.35;;
19149;SDS011;9707;49.158;8.632;2023-01-26T11:31:11;8.57;;;6.68;;
19149;SDS011;9707;49.158;8.632;2023-01-26T11:39:08;7.55;;;5.32;;
19149;SDS011;9707;49.158;8.632;2023-01-26T11:49:44;7.50;;;4.63;;
19149;SDS011;9707;49.158;8.632;2023-01-26T11:58:00;6.88;;;4.53;;
19149;SDS011;9707;49.158;8.632;2023-01-26T12:03:04;4.75;;;3.67;;
19149;SDS011;9707;49.158;8.632;2023-01-26T12:05:45;8.13;;;5.05;;
19149;SDS011;9707;49.158;8.632;2023-01-26T12:08:26;6.35;;;3.75;;
19149;SDS011;9707;49.158;8.632;2023-01-26T12:13:51;7.38;;;5.10;;
19149;SDS011;9707;49.158;8.632;2023-01-26T12:16:24;5.93;;;4.60;;
19149;SDS011;9707;49.158;8.632;2023-01-26T12:18:54;6.60;;;4.32;;
19149;SDS011;9707;49.158;8.632;2023-01-26T12:21:29;4.63;;;3.40;;
19149;SDS011;9707;49.158;8.632;2023-01-26T12:24:00;8.27;;;4.13;;
19149;SDS011;9707;49.158;8.632;2023-01-26T12:26:35;7.63;;;4.25;;
19149;SDS011;9707;49.158;8.632;2023-01-26T12:32:11;10.07;;;5.97;;
19149;SDS011;9707;49.158;8.632;2023-01-26T12:34:38;6.15;;;3.80;;
19149;SDS011;9707;49.158;8.632;2023-01-26T12:40:28;7.53;;;4.00;;
19149;SDS011;9707;49.158;8.632;2023-01-26T12:43:35;6.03;;;3.60;;
19149;SDS011;9707;49.158;8.632;2023-01-26T12:46:01;5.03;;;3.88;;
19149;SDS011;9707;49.158;8.632;2023-01-26T12:51:10;5.57;;;3.80;;
19149;SDS011;9707;49.158;8.632;2023-01-26T12:53:48;5.68;;;4.30;;
19149;SDS011;9707;49.158;8.632;2023-01-26T12:56:20;4.82;;;3.30;;
19149;SDS011;9707;49.158;8.632;2023-01-26T12:58:52;29.67;;;13.35;;
19149;SDS011;9707;49.158;8.632;2023-01-26T13:01:21;19.42;;;10.40;;
19149;SDS011;9707;49.158;8.632;2023-01-26T13:03:56;5.47;;;3.95;;
19149;SDS011;9707;49.158;8.632;2023-01-26T13:06:27;6.30;;;4.10;;
19149;SDS011;9707;49.158;8.632;2023-01-26T13:11:40;5.85;;;3.88;;
19149;SDS011;9707;49.158;8.632;2023-01-26T13:16:53;5.25;;;3.42;;
19149;SDS011;9707;49.158;8.632;2023-01-26T13:22:06;5.35;;;3.47;;
19149;SDS011;9707;49.158;8.632;2023-01-26T13:24:48;8.82;;;5.00;;
19149;SDS011;9707;49.158;8.632;2023-01-26T13:35:13;5.55;;;4.13;;
19149;SDS011;9707;49.158;8.632;2023-01-26T13:40:23;5.45;;;4.13;;
19149;SDS011;9707;49.158;8.632;2023-01-26T13:51:11;8.32;;;5.00;;
19149;SDS011;9707;49.158;8.632;2023-01-26T13:53:40;8.43;;;7.40;;
19149;SDS011;9707;49.158;8.632;2023-01-26T13:56:19;8.52;;;7.05;;
19149;SDS011;9707;49.158;8.632;2023-01-26T13:58:47;14.05;;;9.82;;
19149;SDS011;9707;49.158;8.632;2023-01-26T14:01:13;9.02;;;6.05;;
19149;SDS011;9707;49.158;8.632;2023-01-26T14:03:39;8.05;;;5.88;;
19149;SDS011;9707;49.158;8.632;2023-01-26T14:08:35;7.88;;;5.70;;
19149;SDS011;9707;49.158;8.632;2023-01-26T14:11:01;7.38;;;5.80;;
19149;SDS011;9707;49.158;8.632;2023-01-26T14:13:34;11.20;;;8.18;;
19149;SDS011;9707;49.158;8.632;2023-01-26T14:16:01;14.05;;;10.70;;
19149;SDS011;9707;49.158;8.632;2023-01-26T14:18:29;21.20;;;13.88;;
19149;SDS011;9707;49.158;8.632;2023-01-26T14:20:59;13.13;;;8.52;;
19149;SDS011;9707;49.158;8.632;2023-01-26T14:23:28;12.15;;;7.97;;
19149;SDS011;9707;49.158;8.632;2023-01-26T14:26:01;12.00;;;8.32;;
19149;SDS011;9707;49.158;8.632;2023-01-26T14:28:33;9.48;;;7.40;;
19149;SDS011;9707;49.158;8.632;2023-01-26T14:31:02;13.18;;;8.38;;
19149;SDS011;9707;49.158;8.632;2023-01-26T14:33:33;11.32;;;7.40;;
19149;SDS011;9707;49.158;8.632;2023-01-26T14:36:00;12.82;;;8.90;;
19149;SDS011;9707;49.158;8.632;2023-01-26T14:38:27;10.75;;;8.07;;
19149;SDS011;9707;49.158;8.632;2023-01-26T14:40:54;8.80;;;6.13;;
19149;SDS011;9707;49.158;8.632;2023-01-26T14:43:22;7.25;;;6.15;;
19149;SDS011;9707;49.158;8.632;2023-01-26T14:48:17;7.75;;;5.88;;
19149;SDS011;9707;49.158;8.632;2023-01-26T14:50:46;7.78;;;5.95;;
19149;SDS011;9707;49.158;8.632;2023-01-26T14:53:21;8.38;;;6.18;;
19149;SDS011;9707;49.158;8.632;2023-01-26T14:55:49;9.57;;;5.78;;
19149;SDS011;9707;49.158;8.632;2023-01-26T15:00:47;8.15;;;6.35;;
19149;SDS011;9707;49.158;8.632;2023-01-26T15:03:18;7.65;;;5.72;;
19149;SDS011;9707;49.158;8.632;2023-01-26T15:06:15;8.80;;;5.72;;
19149;SDS011;9707;49.158;8.632;2023-01-26T15:09:00;8.73;;;7.03;;
19149;SDS011;9707;49.158;8.632;2023-01-26T15:11:37;8.80;;;7.03;;
19149;SDS011;9707;49.158;8.632;2023-01-26T15:14:26;10.13;;;7.22;;
19149;SDS011;9707;49.158;8.632;2023-01-26T15:17:02;11.23;;;8.10;;
19149;SDS011;9707;49.158;8.632;2023-01-26T15:19:37;9.82;;;7.63;;
19149;SDS011;9707;49.158;8.632;2023-01-26T15:22:03;10.60;;;8.00;;
19149;SDS011;9707;49.158;8.632;2023-01-26T15:24:29;11.52;;;8.00;;
19149;SDS011;9707;49.158;8.632;2023-01-26T15:27:02;10.32;;;7.38;;
19149;SDS011;9707;49.158;8.632;2023-01-26T15:29:30;10.57;;;8.88;;
19149;SDS011;9707;49.158;8.632;2023-01-26T15:31:57;11.50;;;8.70;;
19149;SDS011;9707;49.158;8.632;2023-01-26T15:36:59;10.65;;;7.82;;
19149;SDS011;9707;49.158;8.632;2023-01-26T15:39:25;19.38;;;11.50;;
19149;SDS011;9707;49.158;8.632;2023-01-26T15:44:38;14.50;;;8.95;;
19149;SDS011;9707;49.158;8.632;2023-01-26T15:47:06;14.77;;;9.43;;
19149;SDS011;9707;49.158;8.632;2023-01-26T15:49:32;11.45;;;8.80;;
19149;SDS011;9707;49.158;8.632;2023-01-26T15:51:58;14.15;;;9.07;;
19149;SDS011;9707;49.158;8.632;2023-01-26T15:54:23;10.43;;;7.88;;
19149;SDS011;9707;49.158;8.632;2023-01-26T15:56:48;13.45;;;8.38;;
19149;SDS011;9707;49.158;8.632;2023-01-26T15:59:14;14.68;;;8.60;;
19149;SDS011;9707;49.158;8.632;2023-01-26T16:01:41;11.90;;;9.10;;
19149;SDS011;9707;49.158;8.632;2023-01-26T16:04:10;11.80;;;8.10;;
19149;SDS011;9707;49.158;8.632;2023-01-26T16:06:37;12.45;;;8.60;;
19149;SDS011;9707;49.158;8.632;2023-01-26T16:09:02;12.43;;;8.35;;
19149;SDS011;9707;49.158;8.632;2023-01-26T16:11:29;11.07;;;8.73;;
19149;SDS011;9707;49.158;8.632;2023-01-26T16:14:01;12.27;;;9.02;;
19149;SDS011;9707;49.158;8.632;2023-01-26T16:16:27;12.60;;;9.00;;
19149;SDS011;9707;49.158;8.632;2023-01-26T16:18:53;10.57;;;7.40;;
19149;SDS011;9707;49.158;8.632;2023-01-26T16:21:21;10.70;;;7.90;;
19149;SDS011;9707;49.158;8.632;2023-01-26T16:23:48;10.82;;;7.88;;
19149;SDS011;9707;49.158;8.632;2023-01-26T16:26:15;12.20;;;8.35;;
19149;SDS011;9707;49.158;8.632;2023-01-26T16:28:41;11.07;;;7.97;;
19149;SDS011;9707;49.158;8.632;2023-01-26T16:31:14;12.45;;;8.45;;
19149;SDS011;9707;49.158;8.632;2023-01-26T16:33:44;11.40;;;8.38;;
19149;SDS011;9707;49.158;8.632;2023-01-26T16:36:11;13.00;;;8.52;;
19149;SDS011;9707;49.158;8.632;2023-01-26T16:38:38;12.63;;;8.75;;
19149;SDS011;9707;49.158;8.632;2023-01-26T16:41:04;17.88;;;9.43;;
19149;SDS011;9707;49.158;8.632;2023-01-26T16:43:30;12.13;;;8.63;;